sensor_id;sensor_type;location;lat;lon;timestamp;temperature;humidity
23087;DHT22;11712;51.134;4.156;2022-08-01T00:01:51;21.10;99.90
23087;DHT22;11712;51.134;4.156;2022-08-01T00:04:17;21.20;99.90
23087;DHT22;11712;51.134;4.156;2022-08-01T00:06:42;21.30;99.90
23087;DHT22;11712;51.134;4.156;2022-08-01T00:09:08;21.20;99.90
23087;DHT22;11712;51.134;4.156;2022-08-01T00:11:34;21.40;99.90
23087;DHT22;11712;51.134;4.156;2022-08-01T00:13:59;21.10;99.90
23087;DHT22;11712;51.134;4.156;2022-08-01T00:16:25;21.10;99.90
23087;DHT22;11712;51.134;4.156;2022-08-01T00:18:51;21.00;99.90
23087;DHT22;11712;51.134;4.156;2022-08-01T00:21:17;21.10;99.90
23087;DHT22;11712;51.134;4.156;2022-08-01T00:23:43;21.00;99.90
23087;DHT22;11712;51.134;4.156;2022-08-01T00:26:11;21.00;99.90
23087;DHT22;11712;51.134;4.156;2022-08-01T00:28:37;21.00;99.90
23087;DHT22;11712;51.134;4.156;2022-08-01T00:31:03;20.90;99.90
23087;DHT22;11712;51.134;4.156;2022-08-01T00:33:28;20.90;99.90
23087;DHT22;11712;51.134;4.156;2022-08-01T00:35:54;20.90;99.90
23087;DHT22;11712;51.134;4.156;2022-08-01T00:38:20;20.90;99.90
23087;DHT22;11712;51.134;4.156;2022-08-01T00:40:46;21.00;99.90
23087;DHT22;11712;51.134;4.156;2022-08-01T00:43:12;20.90;99.90
23087;DHT22;11712;51.134;4.156;2022-08-01T00:45:37;20.90;99.90
23087;DHT22;11712;51.134;4.156;2022-08-01T00:48:03;20.90;99.90
23087;DHT22;11712;51.134;4.156;2022-08-01T00:50:29;20.90;99.90
23087;DHT22;11712;51.134;4.156;2022-08-01T00:52:55;20.80;99.90
23087;DHT22;11712;51.134;4.156;2022-08-01T00:55:22;20.70;99.90
23087;DHT22;11712;51.134;4.156;2022-08-01T00:57:49;20.70;99.90
23087;DHT22;11712;51.134;4.156;2022-08-01T01:00:15;20.70;99.90
23087;DHT22;11712;51.134;4.156;2022-08-01T01:02:40;20.80;99.90
23087;DHT22;11712;51.134;4.156;2022-08-01T01:05:07;20.80;99.90
23087;DHT22;11712;51.134;4.156;2022-08-01T01:08:12;20.70;99.90
23087;DHT22;11712;51.134;4.156;2022-08-01T01:10:52;20.50;99.90
23087;DHT22;11712;51.134;4.156;2022-08-01T01:13:40;20.60;99.90
23087;DHT22;11712;51.134;4.156;2022-08-01T01:16:13;20.70;99.90
23087;DHT22;11712;51.134;4.156;2022-08-01T01:18:46;20.70;99.90
23087;DHT22;11712;51.134;4.156;2022-08-01T01:24:21;20.60;99.90
23087;DHT22;11712;51.134;4.156;2022-08-01T01:27:14;20.50;99.90
23087;DHT22;11712;51.134;4.156;2022-08-01T01:29:50;20.40;99.90
23087;DHT22;11712;51.134;4.156;2022-08-01T01:32:28;20.50;99.90
23087;DHT22;11712;51.134;4.156;2022-08-01T01:34:59;20.50;99.90
23087;DHT22;11712;51.134;4.156;2022-08-01T01:37:26;20.50;99.90
23087;DHT22;11712;51.134;4.156;2022-08-01T01:39:53;20.50;99.90
23087;DHT22;11712;51.134;4.156;2022-08-01T01:42:20;20.30;99.90
23087;DHT22;11712;51.134;4.156;2022-08-01T01:44:48;20.30;99.90
23087;DHT22;11712;51.134;4.156;2022-08-01T01:47:16;20.40;99.90
23087;DHT22;11712;51.134;4.156;2022-08-01T01:49:44;20.50;99.90
23087;DHT22;11712;51.134;4.156;2022-08-01T01:52:13;20.40;99.90
23087;DHT22;11712;51.134;4.156;2022-08-01T01:54:44;20.40;99.90
23087;DHT22;11712;51.134;4.156;2022-08-01T01:57:11;20.30;99.90
23087;DHT22;11712;51.134;4.156;2022-08-01T01:59:39;20.20;99.90
23087;DHT22;11712;51.134;4.156;2022-08-01T02:02:07;20.20;99.90
23087;DHT22;11712;51.134;4.156;2022-08-01T02:04:36;20.20;99.90
23087;DHT22;11712;51.134;4.156;2022-08-01T02:07:04;20.20;99.90
23087;DHT22;11712;51.134;4.156;2022-08-01T02:09:32;20.20;99.90
23087;DHT22;11712;51.134;4.156;2022-08-01T02:12:00;19.90;99.90
23087;DHT22;11712;51.134;4.156;2022-08-01T02:14:28;19.80;99.90
23087;DHT22;11712;51.134;4.156;2022-08-01T02:16:57;19.60;99.90
23087;DHT22;11712;51.134;4.156;2022-08-01T02:19:24;19.40;99.90
23087;DHT22;11712;51.134;4.156;2022-08-01T02:21:57;19.40;99.90
23087;DHT22;11712;51.134;4.156;2022-08-01T02:24:31;19.50;99.90
23087;DHT22;11712;51.134;4.156;2022-08-01T02:27:01;19.60;99.90
23087;DHT22;11712;51.134;4.156;2022-08-01T02:30:18;19.70;99.90
23087;DHT22;11712;51.134;4.156;2022-08-01T02:32:30;19.70;99.90
23087;DHT22;11712;51.134;4.156;2022-08-01T02:34:57;19.80;99.90
23087;DHT22;11712;51.134;4.156;2022-08-01T02:37:26;19.80;99.90
23087;DHT22;11712;51.134;4.156;2022-08-01T02:39:54;19.70;99.90
23087;DHT22;11712;51.134;4.156;2022-08-01T02:42:22;19.70;99.90
23087;DHT22;11712;51.134;4.156;2022-08-01T02:44:49;19.70;99.90
23087;DHT22;11712;51.134;4.156;2022-08-01T02:47:19;19.80;99.90
23087;DHT22;11712;51.134;4.156;2022-08-01T02:49:47;19.80;99.90
23087;DHT22;11712;51.134;4.156;2022-08-01T02:52:16;19.80;99.90
23087;DHT22;11712;51.134;4.156;2022-08-01T02:54:44;19.80;99.90
23087;DHT22;11712;51.134;4.156;2022-08-01T02:57:12;19.80;99.90
23087;DHT22;11712;51.134;4.156;2022-08-01T02:59:39;19.80;99.90
23087;DHT22;11712;51.134;4.156;2022-08-01T03:02:06;19.80;99.90
23087;DHT22;11712;51.134;4.156;2022-08-01T03:04:34;19.90;99.90
23087;DHT22;11712;51.134;4.156;2022-08-01T03:07:02;19.90;99.90
23087;DHT22;11712;51.134;4.156;2022-08-01T03:09:30;19.90;99.90
23087;DHT22;11712;51.134;4.156;2022-08-01T03:12:01;19.90;99.90
23087;DHT22;11712;51.134;4.156;2022-08-01T03:14:28;19.80;99.90
23087;DHT22;11712;51.134;4.156;2022-08-01T03:16:56;19.80;99.90
23087;DHT22;11712;51.134;4.156;2022-08-01T03:19:24;20.00;99.90
23087;DHT22;11712;51.134;4.156;2022-08-01T03:21:52;19.80;99.90
23087;DHT22;11712;51.134;4.156;2022-08-01T03:24:19;19.90;99.90
23087;DHT22;11712;51.134;4.156;2022-08-01T03:26:47;19.80;99.90
23087;DHT22;11712;51.134;4.156;2022-08-01T03:29:18;19.70;99.90
23087;DHT22;11712;51.134;4.156;2022-08-01T03:31:46;19.80;99.90
23087;DHT22;11712;51.134;4.156;2022-08-01T03:34:13;19.90;99.90
23087;DHT22;11712;51.134;4.156;2022-08-01T03:36:46;19.90;99.90
23087;DHT22;11712;51.134;4.156;2022-08-01T03:39:14;20.00;99.90
23087;DHT22;11712;51.134;4.156;2022-08-01T03:41:45;20.00;99.90
23087;DHT22;11712;51.134;4.156;2022-08-01T03:44:18;19.80;99.90
23087;DHT22;11712;51.134;4.156;2022-08-01T03:46:48;19.60;99.90
23087;DHT22;11712;51.134;4.156;2022-08-01T03:49:33;19.70;99.90
23087;DHT22;11712;51.134;4.156;2022-08-01T03:52:02;19.80;99.90
23087;DHT22;11712;51.134;4.156;2022-08-01T03:54:32;19.70;99.90
23087;DHT22;11712;51.134;4.156;2022-08-01T03:57:00;19.70;99.90
23087;DHT22;11712;51.134;4.156;2022-08-01T03:59:27;19.60;99.90
23087;DHT22;11712;51.134;4.156;2022-08-01T04:01:54;19.60;99.90
23087;DHT22;11712;51.134;4.156;2022-08-01T04:04:20;19.50;99.90
23087;DHT22;11712;51.134;4.156;2022-08-01T04:06:47;19.50;99.90
23087;DHT22;11712;51.134;4.156;2022-08-01T04:09:15;19.70;99.90
23087;DHT22;11712;51.134;4.156;2022-08-01T04:11:41;19.60;99.90
23087;DHT22;11712;51.134;4.156;2022-08-01T04:14:07;19.80;99.90
23087;DHT22;11712;51.134;4.156;2022-08-01T04:16:33;19.70;99.90
23087;DHT22;11712;51.134;4.156;2022-08-01T04:19:00;19.80;99.90
23087;DHT22;11712;51.134;4.156;2022-08-01T04:21:27;19.80;99.90
23087;DHT22;11712;51.134;4.156;2022-08-01T04:23:57;19.80;99.90
23087;DHT22;11712;51.134;4.156;2022-08-01T04:26:25;19.80;99.90
23087;DHT22;11712;51.134;4.156;2022-08-01T04:28:52;19.90;99.90
23087;DHT22;11712;51.134;4.156;2022-08-01T04:31:21;20.00;99.90
23087;DHT22;11712;51.134;4.156;2022-08-01T04:33:49;20.20;99.90
23087;DHT22;11712;51.134;4.156;2022-08-01T04:36:18;20.10;99.90
23087;DHT22;11712;51.134;4.156;2022-08-01T04:38:46;20.10;99.90
23087;DHT22;11712;51.134;4.156;2022-08-01T04:41:13;19.90;99.90
23087;DHT22;11712;51.134;4.156;2022-08-01T04:43:39;19.80;99.90
23087;DHT22;11712;51.134;4.156;2022-08-01T04:46:07;19.80;99.90
23087;DHT22;11712;51.134;4.156;2022-08-01T04:48:36;19.80;99.90
23087;DHT22;11712;51.134;4.156;2022-08-01T04:51:03;19.90;99.90
23087;DHT22;11712;51.134;4.156;2022-08-01T04:53:29;19.90;99.90
23087;DHT22;11712;51.134;4.156;2022-08-01T04:55:58;19.80;99.90
23087;DHT22;11712;51.134;4.156;2022-08-01T04:58:23;19.80;99.90
23087;DHT22;11712;51.134;4.156;2022-08-01T05:00:49;19.70;99.90
23087;DHT22;11712;51.134;4.156;2022-08-01T05:03:15;19.70;99.90
23087;DHT22;11712;51.134;4.156;2022-08-01T05:05:41;19.50;99.90
23087;DHT22;11712;51.134;4.156;2022-08-01T05:08:06;19.50;99.90
23087;DHT22;11712;51.134;4.156;2022-08-01T05:10:32;19.80;99.90
23087;DHT22;11712;51.134;4.156;2022-08-01T05:12:58;19.80;99.90
23087;DHT22;11712;51.134;4.156;2022-08-01T05:15:23;19.70;99.90
23087;DHT22;11712;51.134;4.156;2022-08-01T05:17:49;19.80;99.90
23087;DHT22;11712;51.134;4.156;2022-08-01T05:20:15;19.90;99.90
23087;DHT22;11712;51.134;4.156;2022-08-01T05:22:40;19.90;99.90
23087;DHT22;11712;51.134;4.156;2022-08-01T05:25:06;19.90;99.90
23087;DHT22;11712;51.134;4.156;2022-08-01T05:27:34;19.80;99.90
23087;DHT22;11712;51.134;4.156;2022-08-01T05:30:08;19.80;99.90
23087;DHT22;11712;51.134;4.156;2022-08-01T05:32:35;19.90;99.90
23087;DHT22;11712;51.134;4.156;2022-08-01T05:35:01;20.30;99.90
23087;DHT22;11712;51.134;4.156;2022-08-01T05:37:27;20.40;99.90
23087;DHT22;11712;51.134;4.156;2022-08-01T05:39:52;20.50;99.90
23087;DHT22;11712;51.134;4.156;2022-08-01T05:42:18;20.70;99.90
23087;DHT22;11712;51.134;4.156;2022-08-01T05:44:44;21.00;99.90
23087;DHT22;11712;51.134;4.156;2022-08-01T05:47:09;21.10;99.90
23087;DHT22;11712;51.134;4.156;2022-08-01T05:49:35;20.90;99.90
23087;DHT22;11712;51.134;4.156;2022-08-01T05:52:00;20.80;99.90
23087;DHT22;11712;51.134;4.156;2022-08-01T05:54:27;20.60;99.90
23087;DHT22;11712;51.134;4.156;2022-08-01T05:56:53;20.70;99.90
23087;DHT22;11712;51.134;4.156;2022-08-01T05:59:18;20.70;99.90
23087;DHT22;11712;51.134;4.156;2022-08-01T06:01:44;21.00;99.90
23087;DHT22;11712;51.134;4.156;2022-08-01T06:04:10;21.10;99.90
23087;DHT22;11712;51.134;4.156;2022-08-01T06:06:35;21.10;99.90
23087;DHT22;11712;51.134;4.156;2022-08-01T06:09:01;21.10;99.90
23087;DHT22;11712;51.134;4.156;2022-08-01T06:11:27;20.90;99.90
23087;DHT22;11712;51.134;4.156;2022-08-01T06:13:53;20.80;99.90
23087;DHT22;11712;51.134;4.156;2022-08-01T06:16:19;21.00;99.90
23087;DHT22;11712;51.134;4.156;2022-08-01T06:18:44;21.00;99.90
23087;DHT22;11712;51.134;4.156;2022-08-01T06:21:10;21.30;99.90
23087;DHT22;11712;51.134;4.156;2022-08-01T06:23:36;21.30;99.90
23087;DHT22;11712;51.134;4.156;2022-08-01T06:26:02;21.60;99.90
23087;DHT22;11712;51.134;4.156;2022-08-01T06:28:28;21.80;99.90
23087;DHT22;11712;51.134;4.156;2022-08-01T06:30:54;21.40;99.90
23087;DHT22;11712;51.134;4.156;2022-08-01T06:33:20;21.10;99.90
23087;DHT22;11712;51.134;4.156;2022-08-01T06:35:46;20.70;99.90
23087;DHT22;11712;51.134;4.156;2022-08-01T06:38:11;20.80;99.90
23087;DHT22;11712;51.134;4.156;2022-08-01T06:40:37;21.10;99.90
23087;DHT22;11712;51.134;4.156;2022-08-01T06:43:04;21.00;99.90
23087;DHT22;11712;51.134;4.156;2022-08-01T06:45:29;20.90;99.90
23087;DHT22;11712;51.134;4.156;2022-08-01T06:47:55;21.10;99.90
23087;DHT22;11712;51.134;4.156;2022-08-01T06:50:20;21.40;99.90
23087;DHT22;11712;51.134;4.156;2022-08-01T06:52:46;21.70;99.90
23087;DHT22;11712;51.134;4.156;2022-08-01T06:55:12;21.60;99.90
23087;DHT22;11712;51.134;4.156;2022-08-01T06:57:45;21.40;99.90
23087;DHT22;11712;51.134;4.156;2022-08-01T07:00:12;21.60;99.90
23087;DHT22;11712;51.134;4.156;2022-08-01T07:02:38;21.60;99.90
23087;DHT22;11712;51.134;4.156;2022-08-01T07:05:04;21.50;99.90
23087;DHT22;11712;51.134;4.156;2022-08-01T07:07:30;21.80;99.90
23087;DHT22;11712;51.134;4.156;2022-08-01T07:09:56;21.70;99.90
23087;DHT22;11712;51.134;4.156;2022-08-01T07:12:22;21.90;99.90
23087;DHT22;11712;51.134;4.156;2022-08-01T07:14:47;22.00;99.90
23087;DHT22;11712;51.134;4.156;2022-08-01T07:17:13;21.90;99.90
23087;DHT22;11712;51.134;4.156;2022-08-01T07:19:39;21.70;99.90
23087;DHT22;11712;51.134;4.156;2022-08-01T07:22:05;21.80;99.90
23087;DHT22;11712;51.134;4.156;2022-08-01T07:24:31;21.70;99.90
23087;DHT22;11712;51.134;4.156;2022-08-01T07:26:57;22.10;99.90
23087;DHT22;11712;51.134;4.156;2022-08-01T07:29:26;22.60;99.90
23087;DHT22;11712;51.134;4.156;2022-08-01T07:31:54;22.80;99.90
23087;DHT22;11712;51.134;4.156;2022-08-01T07:34:21;22.80;99.90
23087;DHT22;11712;51.134;4.156;2022-08-01T07:36:47;22.90;99.90
23087;DHT22;11712;51.134;4.156;2022-08-01T07:39:12;22.70;99.90
23087;DHT22;11712;51.134;4.156;2022-08-01T07:41:38;22.50;99.90
23087;DHT22;11712;51.134;4.156;2022-08-01T07:44:03;22.70;99.90
23087;DHT22;11712;51.134;4.156;2022-08-01T07:46:30;22.40;99.90
23087;DHT22;11712;51.134;4.156;2022-08-01T07:48:56;22.60;99.90
23087;DHT22;11712;51.134;4.156;2022-08-01T07:51:22;22.70;99.90
23087;DHT22;11712;51.134;4.156;2022-08-01T07:53:47;22.90;99.90
23087;DHT22;11712;51.134;4.156;2022-08-01T07:56:13;23.10;99.90
23087;DHT22;11712;51.134;4.156;2022-08-01T07:58:39;23.10;99.90
23087;DHT22;11712;51.134;4.156;2022-08-01T08:01:05;23.10;99.90
23087;DHT22;11712;51.134;4.156;2022-08-01T08:03:30;23.00;99.90
23087;DHT22;11712;51.134;4.156;2022-08-01T08:05:56;23.00;99.90
23087;DHT22;11712;51.134;4.156;2022-08-01T08:08:22;22.60;99.90
23087;DHT22;11712;51.134;4.156;2022-08-01T08:10:48;22.50;99.90
23087;DHT22;11712;51.134;4.156;2022-08-01T08:13:14;22.80;99.90
23087;DHT22;11712;51.134;4.156;2022-08-01T08:15:39;22.80;99.90
23087;DHT22;11712;51.134;4.156;2022-08-01T08:18:06;22.80;99.90
23087;DHT22;11712;51.134;4.156;2022-08-01T08:20:32;22.80;99.90
23087;DHT22;11712;51.134;4.156;2022-08-01T08:22:58;22.90;99.90
23087;DHT22;11712;51.134;4.156;2022-08-01T08:25:24;23.20;99.90
23087;DHT22;11712;51.134;4.156;2022-08-01T08:27:51;22.60;99.90
23087;DHT22;11712;51.134;4.156;2022-08-01T08:30:17;22.30;99.90
23087;DHT22;11712;51.134;4.156;2022-08-01T08:32:43;22.70;99.90
23087;DHT22;11712;51.134;4.156;2022-08-01T08:35:09;23.00;99.90
23087;DHT22;11712;51.134;4.156;2022-08-01T08:37:36;23.10;99.90
23087;DHT22;11712;51.134;4.156;2022-08-01T08:40:03;23.10;99.90
23087;DHT22;11712;51.134;4.156;2022-08-01T08:42:29;23.70;99.90
23087;DHT22;11712;51.134;4.156;2022-08-01T08:44:55;24.00;99.90
23087;DHT22;11712;51.134;4.156;2022-08-01T08:47:22;23.00;99.90
23087;DHT22;11712;51.134;4.156;2022-08-01T08:49:54;22.70;99.90
23087;DHT22;11712;51.134;4.156;2022-08-01T08:52:21;23.10;99.90
23087;DHT22;11712;51.134;4.156;2022-08-01T08:54:49;23.70;99.90
23087;DHT22;11712;51.134;4.156;2022-08-01T08:57:15;23.60;99.90
23087;DHT22;11712;51.134;4.156;2022-08-01T08:59:43;23.70;99.90
23087;DHT22;11712;51.134;4.156;2022-08-01T09:02:10;23.70;99.90
23087;DHT22;11712;51.134;4.156;2022-08-01T09:04:36;22.80;99.90
23087;DHT22;11712;51.134;4.156;2022-08-01T09:07:04;22.50;99.90
23087;DHT22;11712;51.134;4.156;2022-08-01T09:09:31;23.10;99.90
23087;DHT22;11712;51.134;4.156;2022-08-01T09:11:57;23.70;99.90
23087;DHT22;11712;51.134;4.156;2022-08-01T09:14:23;24.20;99.90
23087;DHT22;11712;51.134;4.156;2022-08-01T09:17:03;24.50;99.90
23087;DHT22;11712;51.134;4.156;2022-08-01T09:19:44;24.50;99.90
23087;DHT22;11712;51.134;4.156;2022-08-01T09:22:14;24.40;99.90
23087;DHT22;11712;51.134;4.156;2022-08-01T09:24:57;24.60;99.90
23087;DHT22;11712;51.134;4.156;2022-08-01T09:27:23;23.80;99.90
23087;DHT22;11712;51.134;4.156;2022-08-01T09:29:52;23.70;99.90
23087;DHT22;11712;51.134;4.156;2022-08-01T09:32:19;23.50;99.90
23087;DHT22;11712;51.134;4.156;2022-08-01T09:34:44;23.70;99.90
23087;DHT22;11712;51.134;4.156;2022-08-01T09:37:12;23.90;99.90
23087;DHT22;11712;51.134;4.156;2022-08-01T09:39:38;23.90;99.90
23087;DHT22;11712;51.134;4.156;2022-08-01T09:42:25;24.50;99.90
23087;DHT22;11712;51.134;4.156;2022-08-01T09:44:52;24.90;99.90
23087;DHT22;11712;51.134;4.156;2022-08-01T09:47:19;24.40;99.90
23087;DHT22;11712;51.134;4.156;2022-08-01T09:49:54;24.00;99.90
23087;DHT22;11712;51.134;4.156;2022-08-01T09:52:24;24.30;99.90
23087;DHT22;11712;51.134;4.156;2022-08-01T09:54:54;24.50;99.90
23087;DHT22;11712;51.134;4.156;2022-08-01T09:57:21;24.90;99.90
23087;DHT22;11712;51.134;4.156;2022-08-01T09:59:52;24.80;99.90
23087;DHT22;11712;51.134;4.156;2022-08-01T10:02:35;24.60;99.90
23087;DHT22;11712;51.134;4.156;2022-08-01T10:05:03;24.10;99.90
23087;DHT22;11712;51.134;4.156;2022-08-01T10:07:29;24.10;99.90
23087;DHT22;11712;51.134;4.156;2022-08-01T10:09:54;24.20;99.90
23087;DHT22;11712;51.134;4.156;2022-08-01T10:12:22;24.50;99.90
23087;DHT22;11712;51.134;4.156;2022-08-01T10:14:50;25.20;99.90
23087;DHT22;11712;51.134;4.156;2022-08-01T10:17:19;25.50;99.90
23087;DHT22;11712;51.134;4.156;2022-08-01T10:19:45;24.90;99.90
23087;DHT22;11712;51.134;4.156;2022-08-01T10:22:13;25.20;99.90
23087;DHT22;11712;51.134;4.156;2022-08-01T10:24:46;25.60;99.90
23087;DHT22;11712;51.134;4.156;2022-08-01T10:27:15;25.90;99.90
23087;DHT22;11712;51.134;4.156;2022-08-01T10:29:56;25.60;99.90
23087;DHT22;11712;51.134;4.156;2022-08-01T10:32:23;25.50;99.90
23087;DHT22;11712;51.134;4.156;2022-08-01T10:34:52;25.10;99.90
23087;DHT22;11712;51.134;4.156;2022-08-01T10:37:18;24.80;99.90
23087;DHT22;11712;51.134;4.156;2022-08-01T10:39:44;25.30;99.90
23087;DHT22;11712;51.134;4.156;2022-08-01T10:42:11;25.60;99.90
23087;DHT22;11712;51.134;4.156;2022-08-01T10:44:38;25.90;99.90
23087;DHT22;11712;51.134;4.156;2022-08-01T10:47:11;25.80;99.90
23087;DHT22;11712;51.134;4.156;2022-08-01T10:50:04;25.80;99.90
23087;DHT22;11712;51.134;4.156;2022-08-01T10:52:32;26.10;99.90
23087;DHT22;11712;51.134;4.156;2022-08-01T10:55:05;26.30;99.90
23087;DHT22;11712;51.134;4.156;2022-08-01T10:57:51;26.40;99.90
23087;DHT22;11712;51.134;4.156;2022-08-01T11:00:18;26.00;99.90
23087;DHT22;11712;51.134;4.156;2022-08-01T11:03:00;26.20;99.90
23087;DHT22;11712;51.134;4.156;2022-08-01T11:05:31;26.00;99.90
23087;DHT22;11712;51.134;4.156;2022-08-01T11:08:07;25.40;99.90
23087;DHT22;11712;51.134;4.156;2022-08-01T11:10:42;24.80;99.90
23087;DHT22;11712;51.134;4.156;2022-08-01T11:13:10;25.40;99.90
23087;DHT22;11712;51.134;4.156;2022-08-01T11:15:40;25.30;99.90
23087;DHT22;11712;51.134;4.156;2022-08-01T11:21:00;25.00;99.90
23087;DHT22;11712;51.134;4.156;2022-08-01T11:23:30;25.20;99.90
23087;DHT22;11712;51.134;4.156;2022-08-01T11:26:13;25.50;99.90
23087;DHT22;11712;51.134;4.156;2022-08-01T11:28:39;25.90;99.90
23087;DHT22;11712;51.134;4.156;2022-08-01T11:39:10;25.80;99.90
23087;DHT22;11712;51.134;4.156;2022-08-01T11:41:36;25.60;99.90
23087;DHT22;11712;51.134;4.156;2022-08-01T11:44:10;26.00;99.90
23087;DHT22;11712;51.134;4.156;2022-08-01T11:52:07;26.00;99.90
23087;DHT22;11712;51.134;4.156;2022-08-01T11:54:38;26.30;99.90
23087;DHT22;11712;51.134;4.156;2022-08-01T11:57:11;26.60;99.90
23087;DHT22;11712;51.134;4.156;2022-08-01T11:59:42;26.60;99.90
23087;DHT22;11712;51.134;4.156;2022-08-01T12:04:55;25.90;99.90
23087;DHT22;11712;51.134;4.156;2022-08-01T12:07:22;26.30;99.90
23087;DHT22;11712;51.134;4.156;2022-08-01T12:09:57;26.50;99.90
23087;DHT22;11712;51.134;4.156;2022-08-01T12:12:24;26.30;99.90
23087;DHT22;11712;51.134;4.156;2022-08-01T12:14:57;26.40;99.90
23087;DHT22;11712;51.134;4.156;2022-08-01T12:17:35;26.70;99.90
23087;DHT22;11712;51.134;4.156;2022-08-01T12:20:03;26.20;99.90
23087;DHT22;11712;51.134;4.156;2022-08-01T12:22:30;26.30;99.90
23087;DHT22;11712;51.134;4.156;2022-08-01T12:24:56;26.00;99.90
23087;DHT22;11712;51.134;4.156;2022-08-01T12:27:30;25.60;99.90
23087;DHT22;11712;51.134;4.156;2022-08-01T12:29:59;25.90;99.90
23087;DHT22;11712;51.134;4.156;2022-08-01T12:32:31;26.20;99.90
23087;DHT22;11712;51.134;4.156;2022-08-01T12:35:10;26.20;99.90
23087;DHT22;11712;51.134;4.156;2022-08-01T12:37:37;25.50;99.90
23087;DHT22;11712;51.134;4.156;2022-08-01T12:42:48;25.50;99.90
23087;DHT22;11712;51.134;4.156;2022-08-01T12:45:17;26.10;99.90
23087;DHT22;11712;51.134;4.156;2022-08-01T12:47:44;26.30;99.90
23087;DHT22;11712;51.134;4.156;2022-08-01T12:50:16;26.50;99.90
23087;DHT22;11712;51.134;4.156;2022-08-01T12:52:43;26.80;99.90
23087;DHT22;11712;51.134;4.156;2022-08-01T12:55:10;26.50;99.90
23087;DHT22;11712;51.134;4.156;2022-08-01T12:57:38;26.30;99.90
23087;DHT22;11712;51.134;4.156;2022-08-01T13:00:10;25.90;99.90
23087;DHT22;11712;51.134;4.156;2022-08-01T13:02:36;25.80;99.90
23087;DHT22;11712;51.134;4.156;2022-08-01T13:05:03;26.50;99.90
23087;DHT22;11712;51.134;4.156;2022-08-01T13:07:49;26.30;99.90
23087;DHT22;11712;51.134;4.156;2022-08-01T13:10:27;26.00;99.90
23087;DHT22;11712;51.134;4.156;2022-08-01T13:12:56;26.20;99.90
23087;DHT22;11712;51.134;4.156;2022-08-01T13:15:30;26.70;99.90
23087;DHT22;11712;51.134;4.156;2022-08-01T13:17:58;27.30;99.90
23087;DHT22;11712;51.134;4.156;2022-08-01T13:20:30;27.40;99.90
23087;DHT22;11712;51.134;4.156;2022-08-01T13:23:10;27.10;99.90
23087;DHT22;11712;51.134;4.156;2022-08-01T13:25:46;26.40;99.90
23087;DHT22;11712;51.134;4.156;2022-08-01T13:28:20;27.00;99.90
23087;DHT22;11712;51.134;4.156;2022-08-01T13:31:12;27.50;99.90
23087;DHT22;11712;51.134;4.156;2022-08-01T13:33:45;27.50;99.90
23087;DHT22;11712;51.134;4.156;2022-08-01T13:36:11;26.90;99.90
23087;DHT22;11712;51.134;4.156;2022-08-01T13:38:38;27.00;99.90
23087;DHT22;11712;51.134;4.156;2022-08-01T13:41:22;26.90;99.90
23087;DHT22;11712;51.134;4.156;2022-08-01T13:43:48;26.00;99.90
23087;DHT22;11712;51.134;4.156;2022-08-01T13:46:14;26.00;99.90
23087;DHT22;11712;51.134;4.156;2022-08-01T13:48:40;26.50;99.90
23087;DHT22;11712;51.134;4.156;2022-08-01T13:51:05;27.00;99.90
23087;DHT22;11712;51.134;4.156;2022-08-01T13:53:31;27.30;99.90
23087;DHT22;11712;51.134;4.156;2022-08-01T13:55:57;27.30;99.90
23087;DHT22;11712;51.134;4.156;2022-08-01T13:58:23;27.50;99.90
23087;DHT22;11712;51.134;4.156;2022-08-01T14:00:48;28.00;99.90
23087;DHT22;11712;51.134;4.156;2022-08-01T14:03:14;28.10;99.90
23087;DHT22;11712;51.134;4.156;2022-08-01T14:05:42;27.60;99.90
23087;DHT22;11712;51.134;4.156;2022-08-01T14:08:08;27.10;99.90
23087;DHT22;11712;51.134;4.156;2022-08-01T14:10:34;26.70;99.90
23087;DHT22;11712;51.134;4.156;2022-08-01T14:13:00;27.30;99.90
23087;DHT22;11712;51.134;4.156;2022-08-01T14:15:25;27.20;99.90
23087;DHT22;11712;51.134;4.156;2022-08-01T14:17:51;27.30;99.90
23087;DHT22;11712;51.134;4.156;2022-08-01T14:20:17;26.80;99.90
23087;DHT22;11712;51.134;4.156;2022-08-01T14:22:45;26.70;99.90
23087;DHT22;11712;51.134;4.156;2022-08-01T14:25:11;26.70;99.90
23087;DHT22;11712;51.134;4.156;2022-08-01T14:27:37;27.20;99.90
23087;DHT22;11712;51.134;4.156;2022-08-01T14:30:05;28.60;99.90
23087;DHT22;11712;51.134;4.156;2022-08-01T14:32:31;30.10;99.90
23087;DHT22;11712;51.134;4.156;2022-08-01T14:34:59;31.00;99.50
23087;DHT22;11712;51.134;4.156;2022-08-01T14:37:25;30.80;96.70
23087;DHT22;11712;51.134;4.156;2022-08-01T14:39:50;30.60;96.00
23087;DHT22;11712;51.134;4.156;2022-08-01T14:42:16;30.50;95.80
23087;DHT22;11712;51.134;4.156;2022-08-01T14:44:42;29.60;96.80
23087;DHT22;11712;51.134;4.156;2022-08-01T14:47:07;28.10;97.50
23087;DHT22;11712;51.134;4.156;2022-08-01T14:49:33;27.50;98.10
23087;DHT22;11712;51.134;4.156;2022-08-01T14:51:59;28.20;99.60
23087;DHT22;11712;51.134;4.156;2022-08-01T14:54:24;28.70;99.20
23087;DHT22;11712;51.134;4.156;2022-08-01T14:56:50;29.10;98.20
23087;DHT22;11712;51.134;4.156;2022-08-01T14:59:18;30.00;97.50
23087;DHT22;11712;51.134;4.156;2022-08-01T15:01:44;30.60;95.90
23087;DHT22;11712;51.134;4.156;2022-08-01T15:04:10;29.70;95.40
23087;DHT22;11712;51.134;4.156;2022-08-01T15:06:35;28.20;96.70
23087;DHT22;11712;51.134;4.156;2022-08-01T15:09:01;27.80;98.00
23087;DHT22;11712;51.134;4.156;2022-08-01T15:11:27;28.90;97.40
23087;DHT22;11712;51.134;4.156;2022-08-01T15:13:53;29.90;96.60
23087;DHT22;11712;51.134;4.156;2022-08-01T15:16:37;31.20;95.80
23087;DHT22;11712;51.134;4.156;2022-08-01T15:19:03;31.80;94.00
23087;DHT22;11712;51.134;4.156;2022-08-01T15:21:29;32.30;93.30
23087;DHT22;11712;51.134;4.156;2022-08-01T15:23:54;33.40;92.40
23087;DHT22;11712;51.134;4.156;2022-08-01T15:26:20;34.10;90.20
23087;DHT22;11712;51.134;4.156;2022-08-01T15:28:45;33.10;90.00
23087;DHT22;11712;51.134;4.156;2022-08-01T15:31:12;32.50;91.30
23087;DHT22;11712;51.134;4.156;2022-08-01T15:33:38;32.20;91.20
23087;DHT22;11712;51.134;4.156;2022-08-01T15:36:04;30.80;92.30
23087;DHT22;11712;51.134;4.156;2022-08-01T15:38:30;30.60;93.00
23087;DHT22;11712;51.134;4.156;2022-08-01T15:40:55;31.50;92.80
23087;DHT22;11712;51.134;4.156;2022-08-01T15:43:21;32.50;90.70
23087;DHT22;11712;51.134;4.156;2022-08-01T15:45:47;33.50;88.40
23087;DHT22;11712;51.134;4.156;2022-08-01T15:48:12;33.30;87.80
23087;DHT22;11712;51.134;4.156;2022-08-01T15:50:38;33.40;87.80
23087;DHT22;11712;51.134;4.156;2022-08-01T15:53:05;33.80;87.00
23087;DHT22;11712;51.134;4.156;2022-08-01T15:55:31;32.90;85.30
23087;DHT22;11712;51.134;4.156;2022-08-01T15:57:57;32.30;87.30
23087;DHT22;11712;51.134;4.156;2022-08-01T16:00:23;32.70;86.30
23087;DHT22;11712;51.134;4.156;2022-08-01T16:02:48;33.00;84.40